Map

Track Data

SID SEASON NUMBER BASIN SUBBASIN NAME ISO_TIME NATURE LAT LON WMO_WIND WMO_PRES WMO_AGENCY TRACK_TYPE DIST2LAND LANDFALL IFLAG USA_AGENCY USA_ATCF_ID USA_LAT USA_LON USA_RECORD USA_STATUS USA_WIND USA_PRES USA_SSHS USA_R34_NE USA_R34_SE USA_R34_SW USA_R34_NW USA_R50_NE USA_R50_SE USA_R50_SW USA_R50_NW USA_R64_NE USA_R64_SE USA_R64_SW USA_R64_NW USA_POCI USA_ROCI USA_RMW USA_EYE TOKYO_LAT TOKYO_LON TOKYO_GRADE TOKYO_WIND TOKYO_PRES TOKYO_R50_DIR TOKYO_R50_LONG TOKYO_R50_SHORT TOKYO_R30_DIR TOKYO_R30_LONG TOKYO_R30_SHORT TOKYO_LAND CMA_LAT CMA_LON CMA_CAT CMA_WIND CMA_PRES HKO_LAT HKO_LON HKO_CAT HKO_WIND HKO_PRES NEWDELHI_LAT NEWDELHI_LON NEWDELHI_GRADE NEWDELHI_WIND NEWDELHI_PRES NEWDELHI_CI NEWDELHI_DP NEWDELHI_POCI REUNION_LAT REUNION_LON REUNION_TYPE REUNION_WIND REUNION_PRES REUNION_TNUM REUNION_CI REUNION_RMW REUNION_R34_NE REUNION_R34_SE REUNION_R34_SW REUNION_R34_NW REUNION_R50_NE REUNION_R50_SE REUNION_R50_SW REUNION_R50_NW REUNION_R64_NE REUNION_R64_SE REUNION_R64_SW REUNION_R64_NW BOM_LAT BOM_LON BOM_TYPE BOM_WIND BOM_PRES BOM_TNUM BOM_CI BOM_RMW BOM_R34_NE BOM_R34_SE BOM_R34_SW BOM_R34_NW BOM_R50_NE BOM_R50_SE BOM_R50_SW BOM_R50_NW BOM_R64_NE BOM_R64_SE BOM_R64_SW BOM_R64_NW BOM_ROCI BOM_POCI BOM_EYE BOM_POS_METHOD BOM_PRES_METHOD NADI_LAT NADI_LON NADI_CAT NADI_WIND NADI_PRES WELLINGTON_LAT WELLINGTON_LON WELLINGTON_WIND WELLINGTON_PRES DS824_LAT DS824_LON DS824_STAGE DS824_WIND DS824_PRES TD9636_LAT TD9636_LON TD9636_STAGE TD9636_WIND TD9636_PRES TD9635_LAT TD9635_LON TD9635_WIND TD9635_PRES TD9635_ROCI NEUMANN_LAT NEUMANN_LON NEUMANN_CLASS NEUMANN_WIND NEUMANN_PRES MLC_LAT MLC_LON MLC_CLASS MLC_WIND MLC_PRES USA_GUST BOM_GUST BOM_GUST_PER REUNION_GUST REUNION_GUST_PER USA_SEAHGT USA_SEARAD_NE USA_SEARAD_SE USA_SEARAD_SW USA_SEARAD_NW STORM_SPEED STORM_DIR
1917218N32293 1917 31 NA NA NOT_NAMED 1917-08-06 00:00:00 TS 32.0000 -67.5000 35 hurdat_atl main 849 833 O_____________ hurdat_atl AL021917 32.0000 -67.5000 TS 35 0 4 270
1917218N32293 1917 31 NA NA NOT_NAMED 1917-08-06 03:00:00 TS 32.0001 -67.7500 main 833 809 P_____________ AL021917 32.0001 -67.7500 TS 35 0 4 270
1917218N32293 1917 31 NA NA NOT_NAMED 1917-08-06 06:00:00 TS 32.0000 -68.0000 35 hurdat_atl main 809 794 O_____________ hurdat_atl AL021917 32.0000 -68.0000 TS 35 0 4 270
1917218N32293 1917 31 NA NA NOT_NAMED 1917-08-06 09:00:00 TS 32.0000 -68.2500 main 794 771 P_____________ AL021917 32.0000 -68.2500 TS 35 0 4 270
1917218N32293 1917 31 NA NA NOT_NAMED 1917-08-06 12:00:00 TS 32.0000 -68.5000 35 hurdat_atl main 771 755 O_____________ hurdat_atl AL021917 32.0000 -68.5000 TS 35 0 4 270
1917218N32293 1917 31 NA NA NOT_NAMED 1917-08-06 15:00:00 TS 32.0000 -68.7575 main 748 733 P_____________ AL021917 32.0000 -68.7575 TS 35 0 4 270
1917218N32293 1917 31 NA NA NOT_NAMED 1917-08-06 18:00:00 TS 32.0000 -69.0000 35 hurdat_atl main 733 718 O_____________ hurdat_atl AL021917 32.0000 -69.0000 TS 35 0 4 270
1917218N32293 1917 31 NA NA NOT_NAMED 1917-08-06 21:00:00 TS 31.9999 -69.2000 main 718 703 P_____________ AL021917 31.9999 -69.2000 TS 35 0 3 270
1917218N32293 1917 31 NA NA NOT_NAMED 1917-08-07 00:00:00 TS 32.0000 -69.4000 35 hurdat_atl main 703 688 O_____________ hurdat_atl AL021917 32.0000 -69.4000 TS 35 0 4 270
1917218N32293 1917 31 NA NA NOT_NAMED 1917-08-07 03:00:00 TS 32.0000 -69.6500 main 688 667 P_____________ AL021917 32.0000 -69.6500 TS 35 0 4 270
1917218N32293 1917 31 NA NA NOT_NAMED 1917-08-07 06:00:00 TS 32.0000 -69.9000 35 hurdat_atl main 667 653 O_____________ hurdat_atl AL021917 32.0000 -69.9000 TS 35 0 4 270
1917218N32293 1917 31 NA NA NOT_NAMED 1917-08-07 09:00:00 TS 31.9999 -70.1075 main 653 639 P_____________ AL021917 31.9999 -70.1075 TS 35 0 3 270
1917218N32293 1917 31 NA NA NOT_NAMED 1917-08-07 12:00:00 TS 32.0000 -70.3000 35 hurdat_atl main 639 625 O_____________ hurdat_atl AL021917 32.0000 -70.3000 TS 35 0 3 270
1917218N32293 1917 31 NA NA NOT_NAMED 1917-08-07 15:00:00 TS 31.9999 -70.4925 main 625 610 P_____________ AL021917 31.9999 -70.4925 TS 35 0 3 270
1917218N32293 1917 31 NA NA NOT_NAMED 1917-08-07 18:00:00 TS 32.0000 -70.7000 35 hurdat_atl main 610 595 O_____________ hurdat_atl AL021917 32.0000 -70.7000 TS 35 0 4 269
1917218N32293 1917 31 NA NA NOT_NAMED 1917-08-07 21:00:00 TS 31.9925 -70.9501 main 587 572 P_____________ AL021917 31.9925 -70.9501 TS 37 0 4 270
1917218N32293 1917 31 NA NA NOT_NAMED 1917-08-08 00:00:00 TS 32.0000 -71.2000 40 hurdat_atl main 572 557 O_____________ hurdat_atl AL021917 32.0000 -71.2000 TS 40 0 4 278
1917218N32293 1917 31 NA NA NOT_NAMED 1917-08-08 03:00:00 TS 32.0499 -71.4074 main 557 535 P_____________ AL021917 32.0499 -71.4074 TS 40 0 4 287
1917218N32293 1917 31 NA NA NOT_NAMED 1917-08-08 06:00:00 TS 32.1000 -71.6000 40 hurdat_atl main 535 520 O_____________ hurdat_atl AL021917 32.1000 -71.6000 TS 40 0 3 277
1917218N32293 1917 31 NA NA NOT_NAMED 1917-08-08 09:00:00 TS 32.0925 -71.8001 main 520 505 P_____________ AL021917 32.0925 -71.8001 TS 40 0 3 270
1917218N32293 1917 31 NA NA NOT_NAMED 1917-08-08 12:00:00 TS 32.1000 -72.0000 40 hurdat_atl main 505 484 O_____________ hurdat_atl AL021917 32.1000 -72.0000 TS 40 0 4 285
1917218N32293 1917 31 NA NA NOT_NAMED 1917-08-08 15:00:00 TS 32.1850 -72.1999 main 484 462 P_____________ AL021917 32.1850 -72.1999 TS 40 0 4 301
1917218N32293 1917 31 NA NA NOT_NAMED 1917-08-08 18:00:00 TS 32.3000 -72.4000 40 hurdat_atl main 462 440 O_____________ hurdat_atl AL021917 32.3000 -72.4000 TS 40 0 4 301
1917218N32293 1917 31 NA NA NOT_NAMED 1917-08-08 21:00:00 TS 32.3925 -72.6001 main 440 419 P_____________ AL021917 32.3925 -72.6001 TS 42 0 4 301
1917218N32293 1917 31 NA NA NOT_NAMED 1917-08-09 00:00:00 TS 32.5000 -72.8000 45 hurdat_atl main 419 398 O_____________ hurdat_atl AL021917 32.5000 -72.8000 TS 45 0 4 305
1917218N32293 1917 31 NA NA NOT_NAMED 1917-08-09 03:00:00 TS 32.6350 -73.0075 main 398 369 P_____________ AL021917 32.6350 -73.0075 TS 45 0 5 312
1917218N32293 1917 31 NA NA NOT_NAMED 1917-08-09 06:00:00 TS 32.8000 -73.2000 45 hurdat_atl main 369 347 O_____________ hurdat_atl AL021917 32.8000 -73.2000 TS 45 0 4 316
1917218N32293 1917 31 NA NA NOT_NAMED 1917-08-09 09:00:00 TS 32.9550 -73.3726 main 340 319 P_____________ AL021917 32.9550 -73.3726 TS 45 0 5 328
1917218N32293 1917 31 NA NA NOT_NAMED 1917-08-09 12:00:00 TS 33.2000 -73.5000 45 hurdat_atl main 319 292 O_____________ hurdat_atl AL021917 33.2000 -73.5000 TS 45 0 6 343
1917218N32293 1917 31 NA NA NOT_NAMED 1917-08-09 15:00:00 TS 33.5525 -73.5944 main 286 253 P_____________ AL021917 33.5525 -73.5944 TS 47 0 9 355
1917218N32293 1917 31 NA NA NOT_NAMED 1917-08-09 18:00:00 TS 34.1000 -73.6000 50 hurdat_atl main 253 204 O_____________ hurdat_atl AL021917 34.1000 -73.6000 TS 50 0 13 1
1917218N32293 1917 31 NA NA NOT_NAMED 1917-08-09 21:00:00 TS 34.8518 -73.5668 main 199 185 P_____________ AL021917 34.8518 -73.5668 TS 52 0 17 8
1917218N32293 1917 31 NA NA NOT_NAMED 1917-08-10 00:00:00 TS 35.8000 -73.3000 55 hurdat_atl main 197 197 O_____________ hurdat_atl AL021917 35.8000 -73.3000 TS 55 0 21 21
1917218N32293 1917 31 NA NA NOT_NAMED 1917-08-10 03:00:00 TS 36.8407 -72.6484 main 276 262 P_____________ AL021917 36.8407 -72.6484 TS 57 0 25 29
1917218N32293 1917 31 NA NA NOT_NAMED 1917-08-10 06:00:00 TS 38.0000 -71.8000 60 hurdat_atl main 273 218 O_____________ hurdat_atl AL021917 38.0000 -71.8000 TS 60 0 27 28
1917218N32293 1917 31 NA NA NOT_NAMED 1917-08-10 09:00:00 TS 39.2262 -71.0482 main 223 126 P_____________ AL021917 39.2262 -71.0482 TS 60 0 28 26
1917218N32293 1917 31 NA NA NOT_NAMED 1917-08-10 12:00:00 TS 40.5000 -70.2000 60 hurdat_atl main 118 53 O_____________ hurdat_atl AL021917 40.5000 -70.2000 TS 60 0 29 29
1917218N32293 1917 31 NA NA NOT_NAMED 1917-08-10 15:00:00 TS 41.7334 -69.1984 main 66 66 P_____________ AL021917 41.7334 -69.1984 TS 55 0 30 33
1917218N32293 1917 31 NA NA NOT_NAMED 1917-08-10 18:00:00 TS 43.0000 -68.0000 50 hurdat_atl main 139 41 O_____________ hurdat_atl AL021917 43.0000 -68.0000 TS 50 0 32 36
1917218N32293 1917 31 NA NA NOT_NAMED 1917-08-10 21:00:00 TS 44.3099 -66.6249 main 33 0 P_____________ AL021917 44.3099 -66.6249 TS 50 0 34 38
1917218N32293 1917 31 NA NA NOT_NAMED 1917-08-11 00:00:00 ET 45.7000 -65.0000 50 hurdat_atl main 0 0 O_____________ hurdat_atl AL021917 45.7000 -65.0000 EX 50 -4 38 41
1917218N32293 1917 31 NA NA NOT_NAMED 1917-08-11 03:00:00 ET 47.1557 -63.0688 main 71 70 P_____________ AL021917 47.1557 -63.0688 EX 47 -4 40 42
1917218N32293 1917 31 NA NA NOT_NAMED 1917-08-11 06:00:00 ET 48.7000 -61.0000 45 hurdat_atl main 67 39 O_____________ hurdat_atl AL021917 48.7000 -61.0000 EX 45 -4 41 41
1917218N32293 1917 31 NA NA NOT_NAMED 1917-08-11 09:00:00 ET 50.2722 -58.9820 main 35 0 P_____________ AL021917 50.2722 -58.9820 EX 40 -4 42 38
1917218N32293 1917 31 NA NA NOT_NAMED 1917-08-11 12:00:00 ET 52.0000 -57.0000 35 hurdat_atl main 0 0 O_____________ hurdat_atl AL021917 52.0000 -57.0000 EX 35 -4 44 33
1917218N32293 1917 31 NA NA NOT_NAMED 1917-08-11 15:00:00 ET 53.9434 -55.0442 main 73 73 P_____________ AL021917 53.9434 -55.0442 EX 32 -4 46 30
1917218N32293 1917 31 NA NA NOT_NAMED 1917-08-11 18:00:00 ET 56.0000 -53.0000 30 hurdat_atl main 311 O_____________ hurdat_atl AL021917 56.0000 -53.0000 EX 30 -4 47 29

About IBTrACS Database

This database is a web-friendly format of International Best Track Archive for Climate Stewardship (IBTrACS), a global best track data archive curated by NOAA dating back to 1842.

Updated: 2021-12-03